Time;durP1;ratioP1;P1;durP2;ratioP2;P2;SDS_P1;SDS_P2;PMS_P1;PMS_P2;Temp;Humidity;BMP_temperature;BMP_pressure;BME280_temperature;BME280_humidity;BME280_pressure;Samples;Min_cycle;Max_cycle;Signal;HPM_P1;HPM_P2
2021/05/16 00:00:57;;;;;;;1.98;1.83;;;;;;;8.94;100.00;95438.47;4986851;28;20076;-58
2021/05/16 00:03:26;;;;;;;2.15;1.95;;;;;;;8.90;100.00;95445.03;4987465;28;20062;-59
2021/05/16 00:05:54;;;;;;;4.10;2.00;;;;;;;8.86;100.00;95438.47;4985303;28;20108;-57
2021/05/16 00:08:23;;;;;;;1.95;1.85;;;;;;;8.83;100.00;95441.41;4981939;28;20587;-60
2021/05/16 00:10:52;;;;;;;1.98;1.88;;;;;;;8.82;100.00;95437.13;4984803;28;20145;-58
2021/05/16 00:13:21;;;;;;;1.80;1.70;;;;;;;8.88;100.00;95447.00;4979131;28;20081;-55
2021/05/16 00:15:49;;;;;;;1.90;1.80;;;;;;;8.84;100.00;95437.78;4984806;28;20512;-60
2021/05/16 00:18:18;;;;;;;2.47;2.05;;;;;;;8.83;100.00;95442.22;4989993;28;20046;-58
2021/05/16 00:20:47;;;;;;;1.85;1.75;;;;;;;8.80;100.00;95440.72;4984543;28;20038;-57
2021/05/16 00:23:15;;;;;;;2.10;2.00;;;;;;;8.70;100.00;95434.78;4981699;28;20070;-59
2021/05/16 00:25:44;;;;;;;2.22;1.92;;;;;;;8.65;100.00;95452.00;4987404;28;20066;-56
2021/05/16 00:28:13;;;;;;;1.75;1.65;;;;;;;8.59;100.00;95442.13;4985840;28;20069;-55
2021/05/16 00:30:42;;;;;;;1.90;1.80;;;;;;;8.62;100.00;95450.50;4986725;28;20081;-60
2021/05/16 00:33:21;;;;;;;1.83;1.73;;;;;;;8.70;100.00;95454.97;5117023;27;20901;-55
2021/05/16 00:35:50;;;;;;;2.13;1.92;;;;;;;8.59;100.00;95455.25;5088532;27;20058;-55
2021/05/16 00:38:19;;;;;;;2.00;1.90;;;;;;;8.54;100.00;95453.13;5097906;27;20083;-57
2021/05/16 00:40:48;;;;;;;2.03;1.83;;;;;;;8.77;100.00;95458.63;5105839;28;20470;-55
2021/05/16 00:43:16;;;;;;;3.10;1.73;;;;;;;8.69;100.00;95464.66;5080915;27;20086;-55
2021/05/16 00:45:47;;;;;;;1.80;1.70;;;;;;;8.47;100.00;95470.50;5080264;28;20162;-53
2021/05/16 00:48:16;;;;;;;4.30;2.08;;;;;;;8.48;100.00;95461.63;5086103;27;20085;-56
2021/05/16 00:50:47;;;;;;;3.10;1.98;;;;;;;8.51;100.00;95456.88;5098138;27;20086;-56
2021/05/16 00:53:20;;;;;;;2.45;2.00;;;;;;;8.57;100.00;95458.06;5078585;27;20400;-58
2021/05/16 00:55:50;;;;;;;2.55;2.38;;;;;;;8.56;100.00;95457.22;5106047;28;20109;-57
2021/05/16 00:58:19;;;;;;;1.95;1.85;;;;;;;8.52;100.00;95458.50;5079863;27;20067;-57
2021/05/16 01:00:47;;;;;;;2.33;2.13;;;;;;;8.53;100.00;95451.44;5092488;27;20526;-52
2021/05/16 01:03:16;;;;;;;2.25;2.05;;;;;;;8.54;100.00;95453.13;5089781;27;20090;-55
2021/05/16 01:05:46;;;;;;;2.47;2.03;;;;;;;8.54;100.00;95450.50;5082993;27;20079;-53
2021/05/16 01:08:15;;;;;;;2.47;2.28;;;;;;;8.36;100.00;95462.81;5103369;28;20070;-54
2021/05/16 01:10:45;;;;;;;1.90;1.70;;;;;;;8.45;100.00;95456.66;5098949;27;20040;-57
2021/05/16 01:13:15;;;;;;;2.00;1.90;;;;;;;8.48;100.00;95459.81;5097784;27;20063;-58
2021/05/16 01:15:46;;;;;;;2.90;2.10;;;;;;;8.54;100.00;95455.75;5094224;27;21487;-58
2021/05/16 01:18:15;;;;;;;1.90;1.80;;;;;;;8.37;100.00;95460.06;5100382;27;20047;-58
2021/05/16 01:20:47;;;;;;;1.98;1.83;;;;;;;8.43;100.00;95458.63;5098120;27;20064;-59
2021/05/16 01:23:20;;;;;;;2.10;2.00;;;;;;;8.51;100.00;95456.88;5080936;28;20072;-57
2021/05/16 01:25:49;;;;;;;2.13;2.03;;;;;;;8.32;100.00;95465.75;5080621;28;21343;-58
2021/05/16 01:28:20;;;;;;;1.83;1.73;;;;;;;8.31;100.00;95463.28;5100741;27;20470;-56
2021/05/16 01:30:50;;;;;;;5.47;2.08;;;;;;;8.24;100.00;95465.72;5107183;27;20094;-56
2021/05/16 01:33:18;;;;;;;2.17;1.98;;;;;;;8.36;100.00;95471.53;5102478;27;20051;-56
2021/05/16 01:35:47;;;;;;;1.92;1.83;;;;;;;8.44;100.00;95465.53;5096871;27;20594;-56
2021/05/16 01:38:16;;;;;;;1.90;1.80;;;;;;;8.28;100.00;95464.41;5105245;28;20082;-55
2021/05/16 01:40:44;;;;;;;2.22;2.00;;;;;;;8.43;100.00;95462.09;5099314;27;21387;-52
2021/05/16 01:43:14;;;;;;;2.00;1.80;;;;;;;8.61;100.00;95455.94;5098002;27;20064;-57
2021/05/16 01:45:43;;;;;;;3.20;1.73;;;;;;;8.50;100.00;95459.66;5087697;28;20071;-57
2021/05/16 01:48:13;;;;;;;3.05;1.90;;;;;;;8.36;100.00;95455.75;5086930;27;20063;-54
2021/05/16 01:50:41;;;;;;;2.58;1.88;;;;;;;8.41;100.00;95448.28;5078692;28;20067;-54
2021/05/16 01:53:28;;;;;;;2.03;1.77;;;;;;;8.43;100.00;95453.38;5092189;27;20101;-59
2021/05/16 01:55:56;;;;;;;2.28;1.95;;;;;;;8.26;100.00;95458.50;5078684;28;20059;-55
2021/05/16 01:58:26;;;;;;;2.67;2.00;;;;;;;8.28;100.00;95450.47;5094470;27;20051;-56
2021/05/16 02:00:54;;;;;;;2.13;1.92;;;;;;;8.13;100.00;95455.47;5087585;27;20040;-53
2021/05/16 02:03:24;;;;;;;2.70;1.83;;;;;;;8.14;100.00;95457.13;5090983;27;20525;-56
2021/05/16 02:05:53;;;;;;;2.75;2.10;;;;;;;8.01;100.00;95454.06;5087124;27;20107;-52
2021/05/16 02:08:21;;;;;;;3.08;1.90;;;;;;;8.13;100.00;95457.28;5091899;27;20521;-54
2021/05/16 02:10:50;;;;;;;2.75;1.90;;;;;;;8.11;100.00;95452.16;5087112;28;20083;-56
2021/05/16 02:13:21;;;;;;;4.40;2.17;;;;;;;8.03;100.00;95449.50;5088908;27;20064;-53
2021/05/16 02:15:51;;;;;;;2.10;1.90;;;;;;;8.11;100.00;95451.34;5071504;27;20036;-54
2021/05/16 02:18:37;;;;;;;2.20;2.00;;;;;;;8.06;100.00;95454.44;5065965;28;20459;-54
2021/05/16 02:21:09;;;;;;;1.98;1.80;;;;;;;8.28;100.00;95451.28;5072143;28;20064;-56
2021/05/16 02:23:39;;;;;;;2.65;1.80;;;;;;;8.29;100.00;95441.59;5086468;27;20067;-58
2021/05/16 02:26:08;;;;;;;4.13;2.20;;;;;;;8.26;100.00;95442.75;5087934;28;20080;-57
2021/05/16 02:28:37;;;;;;;2.33;2.08;;;;;;;8.19;100.00;95446.13;5088722;27;20036;-56
2021/05/16 02:31:11;;;;;;;2.88;2.20;;;;;;;8.22;100.00;95437.94;5066443;27;20095;-56
2021/05/16 02:33:39;;;;;;;3.42;2.10;;;;;;;8.04;100.00;95440.63;5078847;28;20094;-57
2021/05/16 02:36:08;;;;;;;2.60;2.00;;;;;;;7.96;100.00;95435.34;5085515;27;20071;-60
2021/05/16 02:38:37;;;;;;;2.30;2.10;;;;;;;8.01;100.00;95446.19;5086811;27;20091;-55
2021/05/16 02:41:05;;;;;;;3.88;2.35;;;;;;;8.01;100.00;95451.44;5092798;28;20087;-57
2021/05/16 02:43:34;;;;;;;2.60;2.40;;;;;;;8.00;100.00;95449.81;5083500;27;20059;-53
2021/05/16 02:46:03;;;;;;;2.20;1.92;;;;;;;7.80;100.00;95457.84;5088196;27;20040;-54
2021/05/16 02:48:32;;;;;;;2.20;2.00;;;;;;;7.92;100.00;95452.38;5075768;28;20075;-55
2021/05/16 02:51:00;;;;;;;2.60;1.90;;;;;;;8.03;100.00;95444.25;5070886;27;20068;-55
2021/05/16 02:53:29;;;;;;;2.15;1.95;;;;;;;7.97;100.00;95450.09;5084092;27;20070;-54
2021/05/16 02:55:57;;;;;;;3.08;1.90;;;;;;;7.75;100.00;95451.44;5091499;28;20048;-57
2021/05/16 02:58:26;;;;;;;3.45;2.10;;;;;;;7.82;100.00;95444.59;5087066;27;20040;-55
2021/05/16 03:00:56;;;;;;;1.90;1.80;;;;;;;7.51;100.00;95452.03;5087828;27;20068;-54
2021/05/16 03:03:24;;;;;;;2.30;2.10;;;;;;;7.48;100.00;95453.16;5085847;27;20039;-58
2021/05/16 03:05:52;;;;;;;3.05;2.00;;;;;;;7.51;100.00;95457.28;5084945;27;20197;-53
2021/05/16 03:08:20;;;;;;;2.40;2.00;;;;;;;7.38;100.00;95461.09;5087277;27;20056;-53
2021/05/16 03:10:49;;;;;;;2.05;1.77;;;;;;;7.47;100.00;95466.44;5092053;28;20529;-51
2021/05/16 03:13:17;;;;;;;2.33;2.13;;;;;;;7.41;100.00;95459.97;5082880;27;20454;-55
2021/05/16 03:15:46;;;;;;;2.70;2.50;;;;;;;7.46;100.00;95455.09;5090979;27;20063;-58
2021/05/16 03:18:16;;;;;;;2.15;2.00;;;;;;;7.52;100.00;95464.19;5083314;27;20537;-54
2021/05/16 03:20:44;;;;;;;2.40;2.25;;;;;;;7.52;100.00;95470.25;5091117;27;20071;-54
2021/05/16 03:23:13;;;;;;;3.28;2.20;;;;;;;7.61;100.00;95471.97;5064671;28;20083;-58
2021/05/16 03:25:41;;;;;;;2.63;2.25;;;;;;;7.54;100.00;95467.47;5085908;28;20312;-58
2021/05/16 03:28:10;;;;;;;2.20;2.00;;;;;;;7.69;100.00;95470.41;5080723;27;20522;-56
2021/05/16 03:30:39;;;;;;;2.35;2.15;;;;;;;7.85;100.00;95462.66;5087088;27;20067;-59
2021/05/16 03:33:07;;;;;;;27.50;2.58;;;;;;;7.97;100.00;95465.84;5077866;28;20064;-57
2021/05/16 03:35:36;;;;;;;3.10;2.17;;;;;;;7.80;100.00;95464.91;5063299;27;20076;-57
2021/05/16 03:38:05;;;;;;;3.13;2.10;;;;;;;7.88;100.00;95466.75;5068845;28;20048;-56
2021/05/16 03:40:33;;;;;;;1.98;1.88;;;;;;;7.72;100.00;95463.03;5081805;27;20093;-56
2021/05/16 03:43:02;;;;;;;2.75;2.10;;;;;;;7.61;100.00;95463.28;5087385;27;20457;-55
2021/05/16 03:45:30;;;;;;;2.13;2.00;;;;;;;7.74;100.00;95465.50;5070720;28;20064;-56
2021/05/16 03:47:58;;;;;;;3.67;2.35;;;;;;;7.90;100.00;95463.00;5062305;28;20088;-55
2021/05/16 03:50:26;;;;;;;2.90;2.00;;;;;;;8.02;100.00;95460.97;5065221;27;20549;-57
2021/05/16 03:52:55;;;;;;;2.40;2.00;;;;;;;7.94;100.00;95461.72;5087619;28;20581;-54
2021/05/16 03:55:24;;;;;;;3.25;2.25;;;;;;;8.07;100.00;95463.97;5083779;27;20067;-59
2021/05/16 03:57:52;;;;;;;2.47;2.28;;;;;;;8.68;100.00;95454.34;5072790;28;20079;-57
2021/05/16 04:00:23;;;;;;;3.70;2.00;;;;;;;8.76;100.00;95457.81;5071626;27;20070;-59
2021/05/16 04:02:51;;;;;;;2.53;2.03;;;;;;;8.79;100.00;95462.75;5080824;27;20436;-59
2021/05/16 04:05:20;;;;;;;3.42;2.00;;;;;;;8.86;100.00;95460.31;5063575;28;20091;-57
2021/05/16 04:07:49;;;;;;;3.60;1.90;;;;;;;8.65;100.00;95468.59;5088295;28;20083;-59
2021/05/16 04:10:18;;;;;;;2.58;2.33;;;;;;;8.91;100.00;95459.81;5088991;28;20544;-57
2021/05/16 04:12:47;;;;;;;2.60;1.90;;;;;;;8.96;100.00;95458.38;5084646;28;20036;-57
2021/05/16 04:15:16;;;;;;;3.05;1.85;;;;;;;8.85;100.00;95465.75;5082091;27;20083;-52
2021/05/16 04:17:44;;;;;;;3.10;1.70;;;;;;;8.99;100.00;95465.94;5087744;27;20059;-55
2021/05/16 04:20:13;;;;;;;5.57;2.10;;;;;;;9.04;100.00;95457.56;5086515;28;20181;-56
2021/05/16 04:22:41;;;;;;;2.88;1.80;;;;;;;8.96;100.00;95465.44;5086873;28;20598;-59
2021/05/16 04:25:12;;;;;;;2.50;1.70;;;;;;;9.26;100.00;95466.69;5086448;27;20529;-56
2021/05/16 04:27:41;;;;;;;;;;;;;;;9.13;100.00;95469.78;5089011;27;20055;-51
2021/05/16 04:30:10;;;;;;;2.17;1.70;;;;;;;9.27;100.00;95484.13;5087230;27;19993;-56
2021/05/16 04:32:39;;;;;;;1.73;1.63;;;;;;;9.59;100.00;95472.81;5090077;27;20063;-53
2021/05/16 04:35:08;;;;;;;3.65;1.90;;;;;;;9.75;100.00;95472.84;5087613;28;20075;-56
2021/05/16 04:37:37;;;;;;;2.00;1.90;;;;;;;9.89;100.00;95473.19;5081447;28;20122;-55
2021/05/16 04:40:06;;;;;;;1.98;1.75;;;;;;;9.80;100.00;95474.16;5086858;27;20143;-56
2021/05/16 04:42:35;;;;;;;3.78;1.63;;;;;;;9.63;100.00;95470.69;5081276;27;20067;-56
2021/05/16 04:45:06;;;;;;;2.65;1.73;;;;;;;9.77;100.00;95469.22;5088535;27;20698;-53
2021/05/16 04:47:34;;;;;;;3.65;1.70;;;;;;;9.75;100.00;95467.56;5084439;27;20525;-56
2021/05/16 04:50:03;;;;;;;4.10;1.90;;;;;;;9.71;100.00;95471.53;5088730;28;20090;-58
2021/05/16 04:52:31;;;;;;;1.90;1.52;;;;;;;9.97;100.00;95471.34;5086753;27;20465;-55
2021/05/16 04:54:59;;;;;;;3.03;1.73;;;;;;;10.08;100.00;95475.47;5083986;27;20544;-58
2021/05/16 04:57:28;;;;;;;5.68;1.80;;;;;;;10.12;100.00;95468.06;5089107;27;20077;-57
2021/05/16 04:59:58;;;;;;;1.90;1.80;;;;;;;10.42;100.00;95463.91;5086129;27;20044;-58
2021/05/16 05:02:28;;;;;;;5.38;1.98;;;;;;;10.96;100.00;95458.00;5080864;27;20124;-55
2021/05/16 05:04:57;;;;;;;1.80;1.55;;;;;;;11.10;100.00;95465.19;5093995;28;20083;-55
2021/05/16 05:07:25;;;;;;;2.67;1.58;;;;;;;11.52;100.00;95458.66;5086776;27;20459;-55
2021/05/16 05:09:53;;;;;;;3.58;1.60;;;;;;;11.19;100.00;95460.69;5084061;27;20075;-59
2021/05/16 05:12:21;;;;;;;2.13;1.52;;;;;;;11.23;100.00;95459.34;5085896;27;20071;-58
2021/05/16 05:14:49;;;;;;;1.52;1.42;;;;;;;11.48;100.00;95454.75;5083022;27;20473;-59
2021/05/16 05:17:17;;;;;;;2.78;1.70;;;;;;;11.21;100.00;95458.69;5082634;27;20088;-57
2021/05/16 05:19:46;;;;;;;1.98;1.67;;;;;;;10.84;100.00;95463.66;5070539;28;20076;-56
2021/05/16 05:22:15;;;;;;;2.63;1.70;;;;;;;10.80;100.00;95470.22;5067318;27;20071;-56
2021/05/16 05:24:44;;;;;;;2.33;1.60;;;;;;;11.03;100.00;95465.03;5077753;27;20064;-61
2021/05/16 05:27:12;;;;;;;1.73;1.40;;;;;;;11.16;100.00;95460.03;5090409;27;20078;-57
2021/05/16 05:29:40;;;;;;;1.75;1.65;;;;;;;11.26;100.00;95448.44;5079575;28;20060;-57
2021/05/16 05:32:10;;;;;;;3.35;1.60;;;;;;;11.47;100.00;95448.66;5070651;28;20060;-58
2021/05/16 05:34:38;;;;;;;1.70;1.60;;;;;;;11.42;100.00;95450.97;5086858;28;20078;-58
2021/05/16 05:37:07;;;;;;;2.28;1.45;;;;;;;11.47;100.00;95447.84;5085972;27;20079;-56
2021/05/16 05:39:35;;;;;;;1.88;1.50;;;;;;;11.04;100.00;95450.03;5081105;28;20671;-54
2021/05/16 05:42:04;;;;;;;3.92;1.50;;;;;;;11.09;100.00;95451.16;5090582;27;20513;-57
2021/05/16 05:44:32;;;;;;;3.53;1.60;;;;;;;11.53;100.00;95450.59;5085297;27;20068;-59
2021/05/16 05:47:01;;;;;;;2.97;1.63;;;;;;;11.50;100.00;95450.13;5091255;28;20079;-55
2021/05/16 05:49:29;;;;;;;2.47;1.92;;;;;;;11.79;100.00;95447.59;5083140;27;20083;-55
2021/05/16 05:51:59;;;;;;;2.20;1.52;;;;;;;12.01;100.00;95448.63;5090588;27;20032;-56
2021/05/16 05:54:30;;;;;;;1.67;1.50;;;;;;;11.25;100.00;95452.91;5085572;27;20058;-55
2021/05/16 05:56:58;;;;;;;3.33;1.52;;;;;;;11.87;100.00;95454.66;5086132;27;20090;-57
2021/05/16 05:59:26;;;;;;;4.07;1.83;;;;;;;11.59;100.00;95454.34;5096277;27;20072;-55
2021/05/16 06:01:54;;;;;;;2.55;1.60;;;;;;;11.60;100.00;95448.88;5089539;28;20074;-56
2021/05/16 06:04:23;;;;;;;3.40;1.52;;;;;;;11.59;100.00;95452.50;5084898;27;20044;-55
2021/05/16 06:06:52;;;;;;;2.97;1.58;;;;;;;11.87;100.00;95465.22;5089661;27;20036;-56
2021/05/16 06:09:20;;;;;;;3.30;1.50;;;;;;;11.93;100.00;95455.78;5085580;27;20067;-55
2021/05/16 06:11:49;;;;;;;3.35;1.67;;;;;;;12.13;100.00;95456.91;5088627;28;20540;-59
2021/05/16 06:14:18;;;;;;;2.15;1.40;;;;;;;12.47;100.00;95448.50;5088514;27;20149;-55
2021/05/16 06:16:46;;;;;;;4.22;1.60;;;;;;;12.31;100.00;95456.59;5087990;28;20170;-56
2021/05/16 06:19:14;;;;;;;3.63;1.52;;;;;;;12.22;100.00;95457.69;5097050;27;20063;-55
2021/05/16 06:21:43;;;;;;;7.80;1.75;;;;;;;12.09;100.00;95455.63;5085943;27;20071;-55
2021/05/16 06:28:00;;;;;;;2.17;1.52;;;;;;;12.27;100.00;95461.41;4982463;28;20061;-61
2021/05/16 06:31:11;;;;;;;3.42;1.50;;;;;;;12.44;100.00;95455.97;4979749;28;20053;-60
2021/05/16 06:33:40;;;;;;;3.20;1.60;;;;;;;12.21;100.00;95456.03;4980308;28;20530;-59
2021/05/16 06:36:09;;;;;;;2.30;1.50;;;;;;;12.05;100.00;95452.53;4967398;28;20469;-59
2021/05/16 06:38:37;;;;;;;2.42;1.38;;;;;;;12.55;100.00;95453.69;4961304;28;20155;-60
2021/05/16 06:41:05;;;;;;;3.60;1.40;;;;;;;12.80;100.00;95448.13;4966712;28;20489;-56
2021/05/16 06:43:34;;;;;;;3.50;1.30;;;;;;;12.61;100.00;95453.97;4967189;28;20070;-59
2021/05/16 06:46:02;;;;;;;3.42;1.60;;;;;;;12.84;100.00;95465.31;4965059;28;20062;-62
2021/05/16 06:48:30;;;;;;;4.53;1.50;;;;;;;13.02;100.00;95464.91;4966076;28;20065;-62
2021/05/16 06:50:58;;;;;;;4.55;1.58;;;;;;;12.73;100.00;95468.38;4964497;28;20066;-61
2021/05/16 06:53:27;;;;;;;4.22;1.48;;;;;;;13.09;100.00;95460.53;4963269;28;20082;-56
2021/05/16 06:55:56;;;;;;;3.85;1.67;;;;;;;13.34;100.00;95453.09;4969451;28;20083;-58
2021/05/16 06:58:24;;;;;;;3.28;1.58;;;;;;;13.07;100.00;95457.22;4962642;28;20086;-59
2021/05/16 07:00:53;;;;;;;2.55;1.40;;;;;;;12.86;100.00;95462.47;4965413;28;20062;-58
2021/05/16 07:03:22;;;;;;;4.18;1.35;;;;;;;13.12;100.00;95459.34;4962433;28;20097;-58
2021/05/16 07:05:50;;;;;;;5.38;1.48;;;;;;;14.01;100.00;95451.97;4956775;28;20075;-56
2021/05/16 07:08:18;;;;;;;2.85;1.40;;;;;;;14.10;100.00;95449.97;4950250;28;20650;-59
2021/05/16 07:10:46;;;;;;;3.90;1.45;;;;;;;14.24;100.00;95452.53;4970435;28;20094;-59
2021/05/16 07:13:14;;;;;;;2.80;1.30;;;;;;;14.20;100.00;95448.63;4963425;28;20078;-60
2021/05/16 07:15:42;;;;;;;2.47;1.25;;;;;;;14.56;100.00;95445.06;4966847;28;20062;-58
2021/05/16 07:18:11;;;;;;;2.42;1.55;;;;;;;14.86;100.00;95442.16;4963354;28;20074;-62
2021/05/16 07:20:39;;;;;;;3.95;1.67;;;;;;;14.21;100.00;95449.47;4965235;28;20070;-61
2021/05/16 07:23:08;;;;;;;2.55;1.50;;;;;;;14.78;100.00;95445.81;4966408;28;20047;-63
2021/05/16 07:25:36;;;;;;;4.97;1.70;;;;;;;14.84;100.00;95447.69;4961045;28;20073;-61
2021/05/16 07:28:04;;;;;;;2.38;1.20;;;;;;;14.97;100.00;95446.94;4958781;28;20098;-62
2021/05/16 07:30:35;;;;;;;2.95;1.35;;;;;;;14.63;100.00;95442.47;4965464;28;20042;-57
2021/05/16 07:33:03;;;;;;;3.08;1.40;;;;;;;14.89;100.00;95431.16;4961889;28;20073;-59
2021/05/16 07:35:32;;;;;;;4.55;1.40;;;;;;;14.45;100.00;95446.41;4966030;28;20082;-60
2021/05/16 07:38:00;;;;;;;2.63;1.17;;;;;;;14.69;100.00;95434.53;4967395;28;20079;-56
2021/05/16 07:40:28;;;;;;;4.25;1.58;;;;;;;14.53;100.00;95442.81;4961187;28;20070;-63
2021/05/16 07:42:57;;;;;;;4.47;1.60;;;;;;;14.51;100.00;95439.50;4965916;28;20074;-63
2021/05/16 07:45:26;;;;;;;2.40;1.55;;;;;;;14.76;100.00;95431.91;4961968;28;20077;-58
2021/05/16 07:48:13;;;;;;;4.20;1.60;;;;;;;15.22;100.00;95433.97;4965489;28;20039;-59
2021/05/16 07:50:43;;;;;;;3.72;1.50;;;;;;;15.25;100.00;95430.09;4965369;28;20547;-63
2021/05/16 07:53:12;;;;;;;5.60;1.50;;;;;;;14.81;100.00;95415.41;4966094;28;20174;-56
2021/05/16 07:55:41;;;;;;;4.68;1.60;;;;;;;14.87;100.00;95417.28;4963058;28;20063;-59
2021/05/16 07:58:09;;;;;;;4.30;1.48;;;;;;;14.89;100.00;95428.50;4964343;28;20491;-62
2021/05/16 08:00:37;;;;;;;5.45;1.80;;;;;;;14.70;100.00;95416.78;4961095;28;20070;-61
2021/05/16 08:03:05;;;;;;;5.45;1.55;;;;;;;15.29;100.00;95421.53;4961770;28;20071;-63
2021/05/16 08:05:36;;;;;;;3.95;1.25;;;;;;;15.39;100.00;95411.34;4959326;28;20522;-55
2021/05/16 08:08:06;;;;;;;3.33;1.27;;;;;;;15.19;100.00;95405.97;4967313;28;20458;-58
2021/05/16 08:10:34;;;;;;;2.38;1.17;;;;;;;15.03;100.00;95405.50;4964070;28;20070;-61
2021/05/16 08:13:02;;;;;;;1.85;0.95;;;;;;;14.95;100.00;95417.09;4962699;28;20074;-60
2021/05/16 08:15:33;;;;;;;2.50;1.40;;;;;;;14.87;100.00;95412.78;4961110;28;20075;-60
2021/05/16 08:18:04;;;;;;;4.35;1.17;;;;;;;14.89;100.00;95409.94;4964926;28;20106;-57
2021/05/16 08:20:32;;;;;;;2.80;1.33;;;;;;;15.21;100.00;95424.38;4962443;28;20062;-63
2021/05/16 08:23:01;;;;;;;3.03;1.40;;;;;;;15.29;100.00;95418.88;4963898;28;20457;-61
2021/05/16 08:25:33;;;;;;;3.47;1.17;;;;;;;15.78;100.00;95412.47;4959902;28;20090;-55
2021/05/16 08:28:02;;;;;;;3.92;1.45;;;;;;;15.72;100.00;95407.97;4945505;28;20564;-57
2021/05/16 08:30:31;;;;;;;3.72;1.70;;;;;;;16.38;100.00;95410.66;4943360;28;20070;-56
2021/05/16 08:33:16;;;;;;;3.17;1.30;;;;;;;15.69;100.00;95416.38;4955107;28;20517;-60
2021/05/16 08:35:44;;;;;;;3.45;1.00;;;;;;;16.02;100.00;95419.03;4961068;28;20070;-59
2021/05/16 08:38:13;;;;;;;3.88;1.20;;;;;;;15.59;100.00;95423.88;4965216;28;20074;-61
2021/05/16 08:40:42;;;;;;;2.78;1.30;;;;;;;16.09;100.00;95419.84;4958023;28;20058;-60
2021/05/16 08:43:10;;;;;;;1.88;0.90;;;;;;;15.96;100.00;95409.22;4962807;28;20066;-62
2021/05/16 08:45:39;;;;;;;2.17;1.10;;;;;;;15.94;100.00;95426.41;4963919;28;20102;-57
2021/05/16 08:48:29;;;;;;;2.70;1.20;;;;;;;16.49;100.00;95413.72;4961237;28;20059;-59
2021/05/16 08:51:44;;;;;;;3.38;1.13;;;;;;;16.01;95.92;95424.56;4963622;28;20046;-60
2021/05/16 08:54:16;;;;;;;3.20;1.10;;;;;;;16.00;100.00;95420.25;4967091;28;20469;-62
2021/05/16 08:56:48;;;;;;;3.47;1.10;;;;;;;15.50;100.00;95428.53;4965150;28;20058;-61
2021/05/16 08:59:17;;;;;;;3.17;1.38;;;;;;;15.82;100.00;95423.50;4971017;28;20170;-54
2021/05/16 09:01:47;;;;;;;2.33;1.10;;;;;;;15.85;100.00;95436.41;4967585;28;21361;-57
2021/05/16 09:04:23;;;;;;;2.00;0.93;;;;;;;15.58;95.86;95438.16;4965240;28;20074;-68
2021/05/16 09:06:53;;;;;;;4.53;1.20;;;;;;;15.29;100.00;95429.50;4967344;28;20939;-59
2021/05/16 09:09:30;;;;;;;2.80;1.15;;;;;;;16.22;100.00;95424.38;4967278;28;20074;-60
2021/05/16 09:12:01;;;;;;;2.47;1.13;;;;;;;16.83;100.00;95433.94;4964586;28;20076;-65
2021/05/16 09:14:47;;;;;;;1.63;1.00;;;;;;;16.38;93.38;95429.28;4967236;28;20082;-63
2021/05/16 09:17:26;;;;;;;3.13;1.20;;;;;;;16.44;100.00;95432.13;4966663;28;20099;-60
2021/05/16 09:19:56;;;;;;;3.67;1.30;;;;;;;16.25;100.00;95429.28;4965323;28;20445;-65
2021/05/16 09:22:42;;;;;;;4.75;1.40;;;;;;;16.74;100.00;95440.47;4965921;28;20070;-63
2021/05/16 09:25:15;;;;;;;3.72;1.20;;;;;;;16.77;100.00;95426.78;4968690;28;20078;-56
2021/05/16 09:27:46;;;;;;;2.47;1.33;;;;;;;16.51;97.36;95427.59;4965119;28;20590;-67
2021/05/16 09:30:29;;;;;;;;;;;;;;;16.27;98.32;95421.91;4969132;28;20464;-58
2021/05/16 09:33:00;;;;;;;4.53;1.33;;;;;;;16.89;100.00;95437.59;4967391;28;19962;-62
2021/05/16 09:35:36;;;;;;;3.45;1.60;;;;;;;16.84;88.90;95425.72;4963906;28;20159;-58
2021/05/16 09:38:07;;;;;;;3.00;1.15;;;;;;;16.33;80.42;95426.41;4966646;28;20706;-59
2021/05/16 09:40:40;;;;;;;3.33;1.38;;;;;;;16.92;100.00;95422.03;4969679;28;20062;-61
2021/05/16 09:43:17;;;;;;;2.58;1.25;;;;;;;17.08;99.74;95415.41;4963867;28;20078;-59
2021/05/16 09:45:48;;;;;;;2.83;1.30;;;;;;;16.50;95.20;95416.16;4965330;28;20071;-66
2021/05/16 09:48:30;;;;;;;3.53;1.35;;;;;;;16.15;96.64;95415.56;4962989;28;20512;-60
2021/05/16 09:51:21;;;;;;;3.47;1.27;;;;;;;16.46;86.81;95414.94;4969636;28;20551;-65
2021/05/16 09:53:52;;;;;;;2.08;1.50;;;;;;;17.01;100.00;95415.44;4963346;28;20039;-62
2021/05/16 09:56:22;;;;;;;2.88;1.63;;;;;;;17.29;76.15;95401.81;4967737;28;20389;-63
2021/05/16 09:58:54;;;;;;;5.78;1.45;;;;;;;17.21;90.87;95399.38;4969635;28;20046;-55
2021/05/16 10:01:24;;;;;;;4.55;1.20;;;;;;;17.72;71.55;95395.00;4966969;28;20074;-61
2021/05/16 10:03:52;;;;;;;4.57;1.67;;;;;;;17.74;86.07;95387.59;4963834;28;20058;-66
2021/05/16 10:06:22;;;;;;;2.88;1.60;;;;;;;18.71;65.69;95385.34;4964626;28;20058;-62
2021/05/16 10:08:51;;;;;;;5.55;1.50;;;;;;;17.90;69.17;95395.13;4967419;28;20557;-59
2021/05/16 10:11:21;;;;;;;3.08;1.27;;;;;;;18.92;62.83;95384.94;4964208;28;20148;-60
2021/05/16 10:13:53;;;;;;;2.50;1.13;;;;;;;18.21;65.86;95378.25;4972804;28;20059;-63
2021/05/16 10:16:22;;;;;;;2.38;1.30;;;;;;;18.81;69.06;95371.50;4962711;28;20078;-57
2021/05/16 10:18:51;;;;;;;3.40;1.30;;;;;;;18.29;84.71;95371.00;4963931;28;20066;-58
2021/05/16 10:21:24;;;;;;;3.13;1.40;;;;;;;18.77;67.10;95363.13;4964176;28;20075;-60
2021/05/16 10:24:08;;;;;;;5.47;1.55;;;;;;;19.07;70.19;95365.88;4968711;28;20070;-59
2021/05/16 10:26:40;;;;;;;3.00;1.30;;;;;;;18.10;69.58;95362.97;4964968;28;20626;-58
2021/05/16 10:29:11;;;;;;;3.13;1.58;;;;;;;18.02;95.05;95360.53;4970698;28;20045;-58
2021/05/16 10:31:40;;;;;;;;;;;;;;;17.51;68.37;95358.81;4965661;28;20058;-59
2021/05/16 10:34:44;;;;;;;4.55;1.40;;;;;;;18.37;72.53;95354.69;4966516;28;19950;-62
2021/05/16 10:37:36;;;;;;;3.72;1.40;;;;;;;19.03;67.06;95337.13;4904793;29;20068;-62
2021/05/16 10:40:08;;;;;;;3.80;1.30;;;;;;;18.73;58.34;95341.41;4966191;28;20050;-60
2021/05/16 10:42:37;;;;;;;2.85;1.27;;;;;;;19.96;63.35;95330.47;4965451;28;20482;-63
2021/05/16 10:45:12;;;;;;;2.87;1.40;;;;;;;20.67;52.65;95325.97;4967261;28;20074;-59
2021/05/16 10:47:56;;;;;;;5.47;1.30;;;;;;;20.31;56.32;95331.31;4964165;28;20482;-62
2021/05/16 10:50:41;;;;;;;2.58;1.10;;;;;;;20.03;88.09;95332.03;4964712;28;20090;-62
2021/05/16 10:53:34;;;;;;;3.95;1.40;;;;;;;20.72;75.65;95323.41;4969708;28;20066;-62
2021/05/16 10:56:13;;;;;;;2.92;0.90;;;;;;;19.42;73.84;95325.91;4965075;28;20078;-61
2021/05/16 10:58:48;;;;;;;3.00;1.15;;;;;;;19.68;56.03;95310.53;4967071;28;20046;-62
2021/05/16 11:01:18;;;;;;;2.58;1.17;;;;;;;18.88;49.99;95311.63;4966409;28;22510;-62
2021/05/16 11:03:55;;;;;;;3.90;1.33;;;;;;;18.83;54.18;95313.34;4954400;28;20082;-58
2021/05/16 11:06:25;;;;;;;5.03;1.40;;;;;;;19.01;64.43;95307.16;4953234;28;20488;-59
2021/05/16 11:09:03;;;;;;;2.80;1.30;;;;;;;18.45;61.21;95304.50;4963162;28;20071;-61
2021/05/16 11:11:34;;;;;;;3.88;1.48;;;;;;;18.41;57.53;95303.34;4963210;28;20079;-62
2021/05/16 11:14:03;;;;;;;4.55;1.23;;;;;;;18.49;51.40;95302.22;4966936;28;20466;-61
2021/05/16 11:16:33;;;;;;;3.50;1.50;;;;;;;18.34;53.48;95293.72;4966622;28;20066;-61
2021/05/16 11:19:05;;;;;;;3.30;1.38;;;;;;;19.29;53.12;95288.69;4964650;28;20066;-63
2021/05/16 11:21:33;;;;;;;4.15;1.30;;;;;;;18.54;53.65;95293.53;4965442;28;20081;-61
2021/05/16 11:24:01;;;;;;;3.72;1.33;;;;;;;19.54;54.03;95285.03;4964429;28;20066;-61
2021/05/16 11:26:29;;;;;;;3.42;1.10;;;;;;;18.49;51.71;95280.84;4962314;28;20777;-61
2021/05/16 11:28:59;;;;;;;4.35;1.40;;;;;;;18.54;50.79;95281.00;4965161;28;20071;-58
2021/05/16 11:31:28;;;;;;;4.13;1.10;;;;;;;18.25;60.64;95275.34;4966270;28;20071;-62
2021/05/16 11:33:59;;;;;;;3.92;1.13;;;;;;;18.57;55.94;95277.06;4957980;28;20074;-62
2021/05/16 11:36:29;;;;;;;3.70;1.35;;;;;;;18.65;59.45;95269.59;4967125;28;20086;-59
2021/05/16 11:39:00;;;;;;;3.08;1.20;;;;;;;19.04;60.82;95270.13;4960789;28;20592;-61
2021/05/16 11:41:33;;;;;;;2.45;1.30;;;;;;;19.15;56.93;95255.16;4964605;28;20543;-61
2021/05/16 11:44:03;;;;;;;3.88;1.33;;;;;;;18.71;51.25;95254.50;4964853;28;20651;-63
2021/05/16 11:46:34;;;;;;;2.42;1.23;;;;;;;18.66;59.54;95257.03;4966268;28;20071;-63
2021/05/16 11:49:04;;;;;;;4.18;1.42;;;;;;;18.66;66.98;95249.84;4963953;28;20070;-62
2021/05/16 11:51:33;;;;;;;4.38;1.38;;;;;;;18.55;69.02;95253.28;4956608;28;20061;-63